sensor_id;sensor_type;location;lat;lon;timestamp;temperature;humidity
62583;DHT22;48641;51.676;5.808;2024-01-30T00:00:09;15.50;51.60
62583;DHT22;48641;51.676;5.808;2024-01-30T00:02:35;15.50;51.60
62583;DHT22;48641;51.676;5.808;2024-01-30T00:05:00;15.40;51.60
62583;DHT22;48641;51.676;5.808;2024-01-30T00:07:26;15.40;51.50
62583;DHT22;48641;51.676;5.808;2024-01-30T00:09:51;15.40;51.50
62583;DHT22;48641;51.676;5.808;2024-01-30T00:12:17;15.40;51.60
62583;DHT22;48641;51.676;5.808;2024-01-30T00:14:42;15.40;51.60
62583;DHT22;48641;51.676;5.808;2024-01-30T00:17:11;15.40;51.60
62583;DHT22;48641;51.676;5.808;2024-01-30T00:19:36;15.40;51.60
62583;DHT22;48641;51.676;5.808;2024-01-30T00:22:02;15.40;51.70
62583;DHT22;48641;51.676;5.808;2024-01-30T00:24:27;15.40;51.60
62583;DHT22;48641;51.676;5.808;2024-01-30T00:26:53;15.40;51.60
62583;DHT22;48641;51.676;5.808;2024-01-30T00:29:18;15.40;51.60
62583;DHT22;48641;51.676;5.808;2024-01-30T00:31:48;15.40;51.70
62583;DHT22;48641;51.676;5.808;2024-01-30T00:34:14;15.30;51.60
62583;DHT22;48641;51.676;5.808;2024-01-30T00:36:39;15.40;51.70
62583;DHT22;48641;51.676;5.808;2024-01-30T00:39:05;15.30;51.60
62583;DHT22;48641;51.676;5.808;2024-01-30T00:41:32;15.30;51.60
62583;DHT22;48641;51.676;5.808;2024-01-30T00:43:58;15.30;51.60
62583;DHT22;48641;51.676;5.808;2024-01-30T00:46:23;15.30;51.60
62583;DHT22;48641;51.676;5.808;2024-01-30T00:48:49;15.30;51.60
62583;DHT22;48641;51.676;5.808;2024-01-30T00:51:14;15.40;51.70
62583;DHT22;48641;51.676;5.808;2024-01-30T00:53:40;15.30;51.70
62583;DHT22;48641;51.676;5.808;2024-01-30T00:56:07;15.30;51.60
62583;DHT22;48641;51.676;5.808;2024-01-30T00:58:33;15.30;51.70
62583;DHT22;48641;51.676;5.808;2024-01-30T01:00:58;15.30;51.70
62583;DHT22;48641;51.676;5.808;2024-01-30T01:03:24;15.30;51.70
62583;DHT22;48641;51.676;5.808;2024-01-30T01:05:50;15.30;51.60
62583;DHT22;48641;51.676;5.808;2024-01-30T01:08:16;15.30;51.70
62583;DHT22;48641;51.676;5.808;2024-01-30T01:10:41;15.30;52.60
62583;DHT22;48641;51.676;5.808;2024-01-30T01:13:07;15.30;51.70
62583;DHT22;48641;51.676;5.808;2024-01-30T01:15:32;15.30;51.70
62583;DHT22;48641;51.676;5.808;2024-01-30T01:17:58;15.30;51.80
62583;DHT22;48641;51.676;5.808;2024-01-30T01:20:24;15.30;51.70
62583;DHT22;48641;51.676;5.808;2024-01-30T01:22:49;15.30;51.80
62583;DHT22;48641;51.676;5.808;2024-01-30T01:25:15;15.20;51.70
62583;DHT22;48641;51.676;5.808;2024-01-30T01:27:41;15.20;51.70
62583;DHT22;48641;51.676;5.808;2024-01-30T01:30:09;15.20;51.70
62583;DHT22;48641;51.676;5.808;2024-01-30T01:32:35;15.20;51.70
62583;DHT22;48641;51.676;5.808;2024-01-30T01:35:01;15.20;51.70
62583;DHT22;48641;51.676;5.808;2024-01-30T01:37:28;15.20;51.70
62583;DHT22;48641;51.676;5.808;2024-01-30T01:39:53;15.20;51.70
62583;DHT22;48641;51.676;5.808;2024-01-30T01:42:19;15.20;51.80
62583;DHT22;48641;51.676;5.808;2024-01-30T01:44:44;15.20;51.70
62583;DHT22;48641;51.676;5.808;2024-01-30T01:47:10;15.20;51.70
62583;DHT22;48641;51.676;5.808;2024-01-30T01:49:36;15.20;51.70
62583;DHT22;48641;51.676;5.808;2024-01-30T01:52:02;15.20;51.80
62583;DHT22;48641;51.676;5.808;2024-01-30T01:54:28;15.20;51.90
62583;DHT22;48641;51.676;5.808;2024-01-30T01:56:54;15.20;51.80
62583;DHT22;48641;51.676;5.808;2024-01-30T01:59:20;15.20;51.80
62583;DHT22;48641;51.676;5.808;2024-01-30T02:01:47;15.20;51.80
62583;DHT22;48641;51.676;5.808;2024-01-30T02:04:16;15.10;51.70
62583;DHT22;48641;51.676;5.808;2024-01-30T02:06:43;15.10;51.70
62583;DHT22;48641;51.676;5.808;2024-01-30T02:09:08;15.10;51.90
62583;DHT22;48641;51.676;5.808;2024-01-30T02:11:34;15.10;51.90
62583;DHT22;48641;51.676;5.808;2024-01-30T02:14:04;15.10;51.90
62583;DHT22;48641;51.676;5.808;2024-01-30T02:16:30;15.10;51.90
62583;DHT22;48641;51.676;5.808;2024-01-30T02:18:56;15.10;51.90
62583;DHT22;48641;51.676;5.808;2024-01-30T02:21:21;15.10;51.90
62583;DHT22;48641;51.676;5.808;2024-01-30T02:23:48;15.10;51.90
62583;DHT22;48641;51.676;5.808;2024-01-30T02:26:14;15.10;51.90
62583;DHT22;48641;51.676;5.808;2024-01-30T02:28:40;15.10;51.90
62583;DHT22;48641;51.676;5.808;2024-01-30T02:31:05;15.10;51.90
62583;DHT22;48641;51.676;5.808;2024-01-30T02:33:31;15.10;51.90
62583;DHT22;48641;51.676;5.808;2024-01-30T02:35:57;15.00;51.80
62583;DHT22;48641;51.676;5.808;2024-01-30T02:38:23;15.10;51.90
62583;DHT22;48641;51.676;5.808;2024-01-30T02:40:49;15.10;51.90
62583;DHT22;48641;51.676;5.808;2024-01-30T02:43:16;15.10;51.90
62583;DHT22;48641;51.676;5.808;2024-01-30T02:45:42;15.00;51.80
62583;DHT22;48641;51.676;5.808;2024-01-30T02:48:07;15.00;51.80
62583;DHT22;48641;51.676;5.808;2024-01-30T02:50:33;15.00;51.80
62583;DHT22;48641;51.676;5.808;2024-01-30T02:52:59;15.00;51.80
62583;DHT22;48641;51.676;5.808;2024-01-30T02:55:25;15.00;51.80
62583;DHT22;48641;51.676;5.808;2024-01-30T02:57:50;15.00;51.80
62583;DHT22;48641;51.676;5.808;2024-01-30T03:00:16;15.00;51.80
62583;DHT22;48641;51.676;5.808;2024-01-30T03:02:41;15.00;51.80
62583;DHT22;48641;51.676;5.808;2024-01-30T03:05:08;15.00;51.80
62583;DHT22;48641;51.676;5.808;2024-01-30T03:07:34;15.00;51.90
62583;DHT22;48641;51.676;5.808;2024-01-30T03:10:00;15.00;52.80
62583;DHT22;48641;51.676;5.808;2024-01-30T03:12:25;15.00;51.80
62583;DHT22;48641;51.676;5.808;2024-01-30T03:14:51;15.00;51.90
62583;DHT22;48641;51.676;5.808;2024-01-30T03:17:16;15.00;51.90
62583;DHT22;48641;51.676;5.808;2024-01-30T03:19:42;15.00;51.90
62583;DHT22;48641;51.676;5.808;2024-01-30T03:22:08;15.00;51.90
62583;DHT22;48641;51.676;5.808;2024-01-30T03:24:33;15.00;52.00
62583;DHT22;48641;51.676;5.808;2024-01-30T03:26:59;14.90;51.90
62583;DHT22;48641;51.676;5.808;2024-01-30T03:29:24;14.90;51.90
62583;DHT22;48641;51.676;5.808;2024-01-30T03:31:50;14.90;51.90
62583;DHT22;48641;51.676;5.808;2024-01-30T03:34:16;14.90;51.90
62583;DHT22;48641;51.676;5.808;2024-01-30T03:36:41;14.90;51.90
62583;DHT22;48641;51.676;5.808;2024-01-30T03:39:07;14.90;52.00
62583;DHT22;48641;51.676;5.808;2024-01-30T03:41:33;14.90;52.00
62583;DHT22;48641;51.676;5.808;2024-01-30T03:43:59;14.90;53.00
62583;DHT22;48641;51.676;5.808;2024-01-30T03:46:24;14.90;52.00
62583;DHT22;48641;51.676;5.808;2024-01-30T03:48:50;14.90;52.00
62583;DHT22;48641;51.676;5.808;2024-01-30T03:51:15;14.90;52.00
62583;DHT22;48641;51.676;5.808;2024-01-30T03:53:42;14.90;52.00
62583;DHT22;48641;51.676;5.808;2024-01-30T03:56:08;14.90;52.00
62583;DHT22;48641;51.676;5.808;2024-01-30T03:58:34;14.90;52.00
62583;DHT22;48641;51.676;5.808;2024-01-30T04:01:00;14.90;52.00
62583;DHT22;48641;51.676;5.808;2024-01-30T04:03:26;14.90;52.00
62583;DHT22;48641;51.676;5.808;2024-01-30T04:05:52;14.90;52.10
62583;DHT22;48641;51.676;5.808;2024-01-30T04:08:18;14.90;52.00
62583;DHT22;48641;51.676;5.808;2024-01-30T04:10:44;14.90;52.10
62583;DHT22;48641;51.676;5.808;2024-01-30T04:13:10;14.90;52.10
62583;DHT22;48641;51.676;5.808;2024-01-30T04:15:35;14.80;52.00
62583;DHT22;48641;51.676;5.808;2024-01-30T04:18:01;14.80;52.00
62583;DHT22;48641;51.676;5.808;2024-01-30T04:20:27;14.90;52.00
62583;DHT22;48641;51.676;5.808;2024-01-30T04:22:52;14.80;52.00
62583;DHT22;48641;51.676;5.808;2024-01-30T04:25:18;14.90;52.00
62583;DHT22;48641;51.676;5.808;2024-01-30T04:27:43;14.90;52.00
62583;DHT22;48641;51.676;5.808;2024-01-30T04:30:09;14.80;51.90
62583;DHT22;48641;51.676;5.808;2024-01-30T04:32:36;14.80;52.00
62583;DHT22;48641;51.676;5.808;2024-01-30T04:35:02;14.80;52.00
62583;DHT22;48641;51.676;5.808;2024-01-30T04:37:27;14.90;52.00
62583;DHT22;48641;51.676;5.808;2024-01-30T04:39:53;14.80;51.90
62583;DHT22;48641;51.676;5.808;2024-01-30T04:42:19;14.80;51.90
62583;DHT22;48641;51.676;5.808;2024-01-30T04:44:45;14.80;51.90
62583;DHT22;48641;51.676;5.808;2024-01-30T04:47:10;14.80;51.90
62583;DHT22;48641;51.676;5.808;2024-01-30T04:49:38;14.80;51.90
62583;DHT22;48641;51.676;5.808;2024-01-30T04:52:05;14.80;51.90
62583;DHT22;48641;51.676;5.808;2024-01-30T04:54:31;14.80;51.90
62583;DHT22;48641;51.676;5.808;2024-01-30T04:56:57;14.80;51.90
62583;DHT22;48641;51.676;5.808;2024-01-30T04:59:22;14.80;51.90
62583;DHT22;48641;51.676;5.808;2024-01-30T05:01:48;14.80;51.90
62583;DHT22;48641;51.676;5.808;2024-01-30T05:04:13;14.80;51.90
62583;DHT22;48641;51.676;5.808;2024-01-30T05:06:39;14.80;51.90
62583;DHT22;48641;51.676;5.808;2024-01-30T05:09:04;14.80;51.90
62583;DHT22;48641;51.676;5.808;2024-01-30T05:11:30;14.80;51.90
62583;DHT22;48641;51.676;5.808;2024-01-30T05:13:56;14.80;51.90
62583;DHT22;48641;51.676;5.808;2024-01-30T05:16:22;14.80;51.90
62583;DHT22;48641;51.676;5.808;2024-01-30T05:18:48;14.80;51.90
62583;DHT22;48641;51.676;5.808;2024-01-30T05:21:13;14.80;51.90
62583;DHT22;48641;51.676;5.808;2024-01-30T05:23:39;14.80;51.90
62583;DHT22;48641;51.676;5.808;2024-01-30T05:26:07;14.80;51.90
62583;DHT22;48641;51.676;5.808;2024-01-30T05:28:33;14.70;51.80
62583;DHT22;48641;51.676;5.808;2024-01-30T05:30:58;14.80;51.90
62583;DHT22;48641;51.676;5.808;2024-01-30T05:33:24;14.80;51.90
62583;DHT22;48641;51.676;5.808;2024-01-30T05:35:49;14.80;52.00
62583;DHT22;48641;51.676;5.808;2024-01-30T05:38:16;14.70;52.00
62583;DHT22;48641;51.676;5.808;2024-01-30T05:40:41;14.80;51.90
62583;DHT22;48641;51.676;5.808;2024-01-30T05:43:07;14.70;51.90
62583;DHT22;48641;51.676;5.808;2024-01-30T05:45:33;14.80;51.90
62583;DHT22;48641;51.676;5.808;2024-01-30T05:48:00;14.80;51.90
62583;DHT22;48641;51.676;5.808;2024-01-30T05:50:26;14.80;52.10
62583;DHT22;48641;51.676;5.808;2024-01-30T05:52:52;14.70;51.90
62583;DHT22;48641;51.676;5.808;2024-01-30T05:55:18;14.70;52.00
62583;DHT22;48641;51.676;5.808;2024-01-30T05:57:43;14.70;51.90
62583;DHT22;48641;51.676;5.808;2024-01-30T06:00:09;14.80;52.00
62583;DHT22;48641;51.676;5.808;2024-01-30T06:02:35;14.70;52.00
62583;DHT22;48641;51.676;5.808;2024-01-30T06:05:01;14.80;53.20
62583;DHT22;48641;51.676;5.808;2024-01-30T06:07:26;14.80;52.30
62583;DHT22;48641;51.676;5.808;2024-01-30T06:09:52;14.70;52.40
62583;DHT22;48641;51.676;5.808;2024-01-30T06:12:17;14.80;52.50
62583;DHT22;48641;51.676;5.808;2024-01-30T06:14:43;14.70;52.60
62583;DHT22;48641;51.676;5.808;2024-01-30T06:17:09;14.80;52.50
62583;DHT22;48641;51.676;5.808;2024-01-30T06:19:35;14.70;52.50
62583;DHT22;48641;51.676;5.808;2024-01-30T06:22:00;14.80;52.50
62583;DHT22;48641;51.676;5.808;2024-01-30T06:24:26;14.80;52.40
62583;DHT22;48641;51.676;5.808;2024-01-30T06:26:53;14.80;52.50
62583;DHT22;48641;51.676;5.808;2024-01-30T06:29:18;14.80;52.50
62583;DHT22;48641;51.676;5.808;2024-01-30T06:31:44;14.80;52.50
62583;DHT22;48641;51.676;5.808;2024-01-30T06:34:10;14.80;52.60
62583;DHT22;48641;51.676;5.808;2024-01-30T06:36:37;14.80;52.70
62583;DHT22;48641;51.676;5.808;2024-01-30T06:39:03;14.80;52.70
62583;DHT22;48641;51.676;5.808;2024-01-30T06:41:28;14.80;52.90
62583;DHT22;48641;51.676;5.808;2024-01-30T06:43:55;14.80;52.80
62583;DHT22;48641;51.676;5.808;2024-01-30T06:46:20;14.80;52.80
62583;DHT22;48641;51.676;5.808;2024-01-30T06:48:46;14.90;52.80
62583;DHT22;48641;51.676;5.808;2024-01-30T06:51:12;14.90;52.90
62583;DHT22;48641;51.676;5.808;2024-01-30T06:53:37;14.90;52.80
62583;DHT22;48641;51.676;5.808;2024-01-30T06:56:03;15.00;52.80
62583;DHT22;48641;51.676;5.808;2024-01-30T06:58:29;15.00;52.70
62583;DHT22;48641;51.676;5.808;2024-01-30T07:00:55;15.10;52.70
62583;DHT22;48641;51.676;5.808;2024-01-30T07:03:21;15.10;52.60
62583;DHT22;48641;51.676;5.808;2024-01-30T07:05:47;15.20;52.60
62583;DHT22;48641;51.676;5.808;2024-01-30T07:08:13;15.20;52.50
62583;DHT22;48641;51.676;5.808;2024-01-30T07:10:38;15.20;52.40
62583;DHT22;48641;51.676;5.808;2024-01-30T07:13:04;15.30;52.40
62583;DHT22;48641;51.676;5.808;2024-01-30T07:15:31;15.30;52.30
62583;DHT22;48641;51.676;5.808;2024-01-30T07:17:56;15.40;52.30
62583;DHT22;48641;51.676;5.808;2024-01-30T07:20:22;15.40;52.20
62583;DHT22;48641;51.676;5.808;2024-01-30T07:22:48;15.40;52.20
62583;DHT22;48641;51.676;5.808;2024-01-30T07:25:13;15.40;52.20
62583;DHT22;48641;51.676;5.808;2024-01-30T07:27:39;15.50;52.20
62583;DHT22;48641;51.676;5.808;2024-01-30T07:30:05;15.50;52.20
62583;DHT22;48641;51.676;5.808;2024-01-30T07:32:31;15.40;52.10
62583;DHT22;48641;51.676;5.808;2024-01-30T07:34:57;15.50;52.20
62583;DHT22;48641;51.676;5.808;2024-01-30T07:37:23;15.50;52.20
62583;DHT22;48641;51.676;5.808;2024-01-30T07:39:48;15.50;52.20
62583;DHT22;48641;51.676;5.808;2024-01-30T07:42:14;15.50;52.10
62583;DHT22;48641;51.676;5.808;2024-01-30T07:44:39;15.50;52.10
62583;DHT22;48641;51.676;5.808;2024-01-30T07:47:05;15.40;52.20
62583;DHT22;48641;51.676;5.808;2024-01-30T07:49:34;15.40;52.20
62583;DHT22;48641;51.676;5.808;2024-01-30T07:52:00;15.40;52.30
62583;DHT22;48641;51.676;5.808;2024-01-30T07:54:25;15.40;52.30
62583;DHT22;48641;51.676;5.808;2024-01-30T07:56:59;15.40;52.30
62583;DHT22;48641;51.676;5.808;2024-01-30T07:59:25;15.40;52.30
62583;DHT22;48641;51.676;5.808;2024-01-30T08:02:04;15.40;53.10
62583;DHT22;48641;51.676;5.808;2024-01-30T08:04:29;15.40;53.90
62583;DHT22;48641;51.676;5.808;2024-01-30T08:06:55;15.40;54.30
62583;DHT22;48641;51.676;5.808;2024-01-30T08:09:20;15.40;54.60
62583;DHT22;48641;51.676;5.808;2024-01-30T08:11:46;15.40;54.90
62583;DHT22;48641;51.676;5.808;2024-01-30T08:14:12;15.40;55.00
62583;DHT22;48641;51.676;5.808;2024-01-30T08:16:39;15.40;55.00
62583;DHT22;48641;51.676;5.808;2024-01-30T08:19:04;15.40;55.10
62583;DHT22;48641;51.676;5.808;2024-01-30T08:21:30;15.40;55.10
62583;DHT22;48641;51.676;5.808;2024-01-30T08:23:55;15.40;55.10
62583;DHT22;48641;51.676;5.808;2024-01-30T08:26:21;15.40;55.20
62583;DHT22;48641;51.676;5.808;2024-01-30T08:28:47;15.40;55.20
62583;DHT22;48641;51.676;5.808;2024-01-30T08:31:12;15.40;55.20
62583;DHT22;48641;51.676;5.808;2024-01-30T08:33:38;15.40;55.30
62583;DHT22;48641;51.676;5.808;2024-01-30T08:36:03;15.40;55.20
62583;DHT22;48641;51.676;5.808;2024-01-30T08:38:29;15.40;55.20
62583;DHT22;48641;51.676;5.808;2024-01-30T08:40:55;15.40;55.20
62583;DHT22;48641;51.676;5.808;2024-01-30T08:43:22;15.40;55.30
62583;DHT22;48641;51.676;5.808;2024-01-30T08:45:48;15.40;55.30
62583;DHT22;48641;51.676;5.808;2024-01-30T08:48:13;15.40;55.40
62583;DHT22;48641;51.676;5.808;2024-01-30T08:50:39;15.40;55.40
62583;DHT22;48641;51.676;5.808;2024-01-30T08:53:05;15.40;55.40
62583;DHT22;48641;51.676;5.808;2024-01-30T08:55:30;15.40;56.40
62583;DHT22;48641;51.676;5.808;2024-01-30T08:57:56;15.50;55.50
62583;DHT22;48641;51.676;5.808;2024-01-30T09:00:21;15.50;55.40
62583;DHT22;48641;51.676;5.808;2024-01-30T09:02:47;15.50;55.50
62583;DHT22;48641;51.676;5.808;2024-01-30T09:05:13;15.50;55.40
62583;DHT22;48641;51.676;5.808;2024-01-30T09:07:38;15.50;55.40
62583;DHT22;48641;51.676;5.808;2024-01-30T09:10:04;15.50;55.40
62583;DHT22;48641;51.676;5.808;2024-01-30T09:12:30;15.50;55.50
62583;DHT22;48641;51.676;5.808;2024-01-30T09:14:56;15.50;55.40
62583;DHT22;48641;51.676;5.808;2024-01-30T09:17:21;15.50;55.40
62583;DHT22;48641;51.676;5.808;2024-01-30T09:19:47;15.50;55.40
62583;DHT22;48641;51.676;5.808;2024-01-30T09:22:12;15.60;55.40
62583;DHT22;48641;51.676;5.808;2024-01-30T09:24:38;15.60;55.30
62583;DHT22;48641;51.676;5.808;2024-01-30T09:27:04;15.50;55.30
62583;DHT22;48641;51.676;5.808;2024-01-30T09:29:29;15.50;55.20
62583;DHT22;48641;51.676;5.808;2024-01-30T09:31:55;15.60;55.20
62583;DHT22;48641;51.676;5.808;2024-01-30T09:34:21;15.50;55.30
62583;DHT22;48641;51.676;5.808;2024-01-30T09:36:46;15.50;55.30
62583;DHT22;48641;51.676;5.808;2024-01-30T09:39:12;15.50;55.40
62583;DHT22;48641;51.676;5.808;2024-01-30T09:41:49;15.50;55.30
62583;DHT22;48641;51.676;5.808;2024-01-30T09:44:19;15.60;55.40
62583;DHT22;48641;51.676;5.808;2024-01-30T09:46:47;15.60;55.40
62583;DHT22;48641;51.676;5.808;2024-01-30T09:49:16;15.50;55.30
62583;DHT22;48641;51.676;5.808;2024-01-30T09:51:44;15.60;55.40
62583;DHT22;48641;51.676;5.808;2024-01-30T09:54:10;15.60;55.30
62583;DHT22;48641;51.676;5.808;2024-01-30T09:56:39;15.60;55.30
62583;DHT22;48641;51.676;5.808;2024-01-30T09:59:04;15.50;55.30
62583;DHT22;48641;51.676;5.808;2024-01-30T10:01:31;15.60;55.40
62583;DHT22;48641;51.676;5.808;2024-01-30T10:03:57;15.60;55.40
62583;DHT22;48641;51.676;5.808;2024-01-30T10:06:24;15.60;55.40
62583;DHT22;48641;51.676;5.808;2024-01-30T10:08:50;15.60;55.40
62583;DHT22;48641;51.676;5.808;2024-01-30T10:11:16;15.60;55.50
62583;DHT22;48641;51.676;5.808;2024-01-30T10:13:41;15.60;55.50
62583;DHT22;48641;51.676;5.808;2024-01-30T10:16:07;15.60;55.60
62583;DHT22;48641;51.676;5.808;2024-01-30T10:18:32;15.60;55.60
62583;DHT22;48641;51.676;5.808;2024-01-30T10:20:59;15.60;55.60
62583;DHT22;48641;51.676;5.808;2024-01-30T10:23:24;15.60;55.50
62583;DHT22;48641;51.676;5.808;2024-01-30T10:25:53;15.60;55.50
62583;DHT22;48641;51.676;5.808;2024-01-30T10:28:21;15.60;56.50
62583;DHT22;48641;51.676;5.808;2024-01-30T10:30:57;15.60;55.50
62583;DHT22;48641;51.676;5.808;2024-01-30T10:33:25;15.60;55.50
62583;DHT22;48641;51.676;5.808;2024-01-30T10:35:50;15.60;55.50
62583;DHT22;48641;51.676;5.808;2024-01-30T10:38:19;15.60;55.60
62583;DHT22;48641;51.676;5.808;2024-01-30T10:40:45;15.70;55.70
62583;DHT22;48641;51.676;5.808;2024-01-30T10:43:15;15.70;55.60
62583;DHT22;48641;51.676;5.808;2024-01-30T10:45:44;15.70;55.60
62583;DHT22;48641;51.676;5.808;2024-01-30T10:48:11;15.70;55.70
62583;DHT22;48641;51.676;5.808;2024-01-30T10:50:39;15.70;55.60
62583;DHT22;48641;51.676;5.808;2024-01-30T10:53:06;15.70;55.60
62583;DHT22;48641;51.676;5.808;2024-01-30T10:55:33;15.70;55.60
62583;DHT22;48641;51.676;5.808;2024-01-30T10:58:00;15.70;55.50
62583;DHT22;48641;51.676;5.808;2024-01-30T11:00:26;15.70;55.50
62583;DHT22;48641;51.676;5.808;2024-01-30T11:02:52;15.70;55.60
62583;DHT22;48641;51.676;5.808;2024-01-30T11:05:24;15.70;55.50
62583;DHT22;48641;51.676;5.808;2024-01-30T11:07:51;15.70;55.50
62583;DHT22;48641;51.676;5.808;2024-01-30T11:10:17;15.70;55.50
62583;DHT22;48641;51.676;5.808;2024-01-30T11:12:43;15.80;55.60
62583;DHT22;48641;51.676;5.808;2024-01-30T11:15:16;15.80;55.50
62583;DHT22;48641;51.676;5.808;2024-01-30T11:20:30;15.80;55.60
62583;DHT22;48641;51.676;5.808;2024-01-30T11:23:01;15.80;55.60
62583;DHT22;48641;51.676;5.808;2024-01-30T11:25:32;15.80;55.60
62583;DHT22;48641;51.676;5.808;2024-01-30T11:27:58;15.80;55.60
62583;DHT22;48641;51.676;5.808;2024-01-30T11:30:31;15.80;55.90
62583;DHT22;48641;51.676;5.808;2024-01-30T11:33:13;15.80;55.70
62583;DHT22;48641;51.676;5.808;2024-01-30T11:35:44;15.80;55.60
62583;DHT22;48641;51.676;5.808;2024-01-30T11:38:11;15.80;55.90
62583;DHT22;48641;51.676;5.808;2024-01-30T11:40:39;15.80;55.80
62583;DHT22;48641;51.676;5.808;2024-01-30T11:43:07;15.80;56.00
62583;DHT22;48641;51.676;5.808;2024-01-30T11:45:34;15.80;56.10
62583;DHT22;48641;51.676;5.808;2024-01-30T11:48:00;15.80;55.90
62583;DHT22;48641;51.676;5.808;2024-01-30T11:50:29;15.80;55.80
62583;DHT22;48641;51.676;5.808;2024-01-30T11:52:55;15.80;55.90
62583;DHT22;48641;51.676;5.808;2024-01-30T11:55:20;15.80;55.80
62583;DHT22;48641;51.676;5.808;2024-01-30T11:57:46;15.80;56.10
62583;DHT22;48641;51.676;5.808;2024-01-30T12:00:18;15.80;55.90
62583;DHT22;48641;51.676;5.808;2024-01-30T12:02:49;15.80;55.90
62583;DHT22;48641;51.676;5.808;2024-01-30T12:05:15;15.90;55.90
62583;DHT22;48641;51.676;5.808;2024-01-30T12:07:40;15.90;56.00
62583;DHT22;48641;51.676;5.808;2024-01-30T12:10:09;15.90;55.90
62583;DHT22;48641;51.676;5.808;2024-01-30T12:12:35;15.90;55.80
62583;DHT22;48641;51.676;5.808;2024-01-30T12:15:01;15.90;55.90
62583;DHT22;48641;51.676;5.808;2024-01-30T12:17:31;15.90;55.90
62583;DHT22;48641;51.676;5.808;2024-01-30T12:20:10;15.90;56.00
62583;DHT22;48641;51.676;5.808;2024-01-30T12:22:41;15.90;55.90
62583;DHT22;48641;51.676;5.808;2024-01-30T12:25:17;15.90;55.90
62583;DHT22;48641;51.676;5.808;2024-01-30T12:27:44;16.00;55.90
62583;DHT22;48641;51.676;5.808;2024-01-30T12:30:12;15.90;55.90
62583;DHT22;48641;51.676;5.808;2024-01-30T12:32:40;15.90;55.90
62583;DHT22;48641;51.676;5.808;2024-01-30T12:35:11;16.00;56.00
62583;DHT22;48641;51.676;5.808;2024-01-30T12:37:37;16.00;55.90
62583;DHT22;48641;51.676;5.808;2024-01-30T12:40:03;16.00;56.00
62583;DHT22;48641;51.676;5.808;2024-01-30T12:42:29;16.00;56.00
62583;DHT22;48641;51.676;5.808;2024-01-30T12:44:57;16.00;56.00
62583;DHT22;48641;51.676;5.808;2024-01-30T12:47:23;16.00;55.90
62583;DHT22;48641;51.676;5.808;2024-01-30T12:49:48;16.00;55.80
62583;DHT22;48641;51.676;5.808;2024-01-30T12:52:16;16.00;55.80
62583;DHT22;48641;51.676;5.808;2024-01-30T12:54:41;16.00;55.80
62583;DHT22;48641;51.676;5.808;2024-01-30T12:57:07;16.00;55.80
62583;DHT22;48641;51.676;5.808;2024-01-30T12:59:33;16.10;55.80
62583;DHT22;48641;51.676;5.808;2024-01-30T13:02:00;16.10;55.80
62583;DHT22;48641;51.676;5.808;2024-01-30T13:04:27;16.10;55.60
62583;DHT22;48641;51.676;5.808;2024-01-30T13:06:53;16.10;55.60
62583;DHT22;48641;51.676;5.808;2024-01-30T13:09:18;16.10;55.70
62583;DHT22;48641;51.676;5.808;2024-01-30T13:11:44;16.10;55.60
62583;DHT22;48641;51.676;5.808;2024-01-30T13:14:09;16.10;55.80
62583;DHT22;48641;51.676;5.808;2024-01-30T13:16:35;16.10;55.80
62583;DHT22;48641;51.676;5.808;2024-01-30T13:19:01;16.10;55.70
62583;DHT22;48641;51.676;5.808;2024-01-30T13:21:27;16.10;55.70
62583;DHT22;48641;51.676;5.808;2024-01-30T13:23:53;16.10;55.70
62583;DHT22;48641;51.676;5.808;2024-01-30T13:26:20;16.10;55.40
62583;DHT22;48641;51.676;5.808;2024-01-30T13:28:46;16.10;55.60
62583;DHT22;48641;51.676;5.808;2024-01-30T13:31:12;16.20;55.30
62583;DHT22;48641;51.676;5.808;2024-01-30T13:33:38;16.20;55.40
62583;DHT22;48641;51.676;5.808;2024-01-30T13:36:04;16.20;55.50
62583;DHT22;48641;51.676;5.808;2024-01-30T13:38:29;16.20;55.50
62583;DHT22;48641;51.676;5.808;2024-01-30T13:40:55;16.20;55.40
62583;DHT22;48641;51.676;5.808;2024-01-30T13:43:20;16.20;55.20
62583;DHT22;48641;51.676;5.808;2024-01-30T13:45:46;16.20;55.10
62583;DHT22;48641;51.676;5.808;2024-01-30T13:48:11;16.20;55.90
62583;DHT22;48641;51.676;5.808;2024-01-30T13:50:37;16.20;54.90
62583;DHT22;48641;51.676;5.808;2024-01-30T13:53:03;16.20;54.80
62583;DHT22;48641;51.676;5.808;2024-01-30T13:55:29;16.20;54.90
62583;DHT22;48641;51.676;5.808;2024-01-30T13:57:55;16.20;54.70
62583;DHT22;48641;51.676;5.808;2024-01-30T14:00:22;16.20;54.80
62583;DHT22;48641;51.676;5.808;2024-01-30T14:02:48;16.30;54.70
62583;DHT22;48641;51.676;5.808;2024-01-30T14:05:14;16.30;54.60
62583;DHT22;48641;51.676;5.808;2024-01-30T14:07:40;16.30;54.70
62583;DHT22;48641;51.676;5.808;2024-01-30T14:10:09;16.30;54.60
62583;DHT22;48641;51.676;5.808;2024-01-30T14:12:36;16.30;54.70
62583;DHT22;48641;51.676;5.808;2024-01-30T14:15:01;16.30;54.60
62583;DHT22;48641;51.676;5.808;2024-01-30T14:17:27;16.30;54.70
62583;DHT22;48641;51.676;5.808;2024-01-30T14:19:52;16.30;54.70
62583;DHT22;48641;51.676;5.808;2024-01-30T14:22:18;16.30;54.80
62583;DHT22;48641;51.676;5.808;2024-01-30T14:24:43;16.30;54.50
62583;DHT22;48641;51.676;5.808;2024-01-30T14:27:10;16.30;54.10
62583;DHT22;48641;51.676;5.808;2024-01-30T14:29:35;16.30;54.60
62583;DHT22;48641;51.676;5.808;2024-01-30T14:32:01;16.40;54.70
62583;DHT22;48641;51.676;5.808;2024-01-30T14:34:27;16.40;54.60
62583;DHT22;48641;51.676;5.808;2024-01-30T14:36:53;16.30;54.40
62583;DHT22;48641;51.676;5.808;2024-01-30T14:39:18;16.30;54.40
62583;DHT22;48641;51.676;5.808;2024-01-30T14:41:44;16.30;54.60
62583;DHT22;48641;51.676;5.808;2024-01-30T14:44:09;16.30;54.40
62583;DHT22;48641;51.676;5.808;2024-01-30T14:46:36;16.30;54.40
62583;DHT22;48641;51.676;5.808;2024-01-30T14:49:03;16.30;54.20
62583;DHT22;48641;51.676;5.808;2024-01-30T14:51:31;16.30;54.00
62583;DHT22;48641;51.676;5.808;2024-01-30T14:53:56;16.30;54.30
62583;DHT22;48641;51.676;5.808;2024-01-30T14:56:22;16.40;54.50
62583;DHT22;48641;51.676;5.808;2024-01-30T14:58:48;16.40;54.50
62583;DHT22;48641;51.676;5.808;2024-01-30T15:01:14;16.40;54.50
62583;DHT22;48641;51.676;5.808;2024-01-30T15:03:39;16.40;54.50
62583;DHT22;48641;51.676;5.808;2024-01-30T15:06:06;16.40;54.40
62583;DHT22;48641;51.676;5.808;2024-01-30T15:08:31;16.40;54.30
62583;DHT22;48641;51.676;5.808;2024-01-30T15:10:58;16.40;54.40
62583;DHT22;48641;51.676;5.808;2024-01-30T15:13:24;16.40;54.40
62583;DHT22;48641;51.676;5.808;2024-01-30T15:15:49;16.40;54.50
62583;DHT22;48641;51.676;5.808;2024-01-30T15:18:15;16.40;54.40
62583;DHT22;48641;51.676;5.808;2024-01-30T15:20:41;16.40;55.50
62583;DHT22;48641;51.676;5.808;2024-01-30T15:23:06;16.40;54.50
62583;DHT22;48641;51.676;5.808;2024-01-30T15:25:32;16.40;54.60